Time;durP1;ratioP1;P1;durP2;ratioP2;P2;SDS_P1;SDS_P2;PMS_P1;PMS_P2;Temp;Humidity;BMP_temperature;BMP_pressure;BME280_temperature;BME280_humidity;BME280_pressure;Samples;Min_cycle;Max_cycle;Signal;HPM_P1;HPM_P2
2023/05/19 00:00:03;;;;;;;5.63;1.58;;;12.60;99.90;;;;;;5070187;28;20078;-82
2023/05/19 00:02:32;;;;;;;3.90;1.35;;;12.60;99.90;;;;;;5053519;28;20025;-81
2023/05/19 00:05:00;;;;;;;3.63;1.55;;;12.50;99.90;;;;;;5054636;28;20454;-80
2023/05/19 00:07:29;;;;;;;3.83;1.55;;;12.50;99.90;;;;;;5053217;28;20025;-81
2023/05/19 00:09:55;;;;;;;5.38;1.80;;;12.50;99.90;;;;;;5070208;28;20029;-81
2023/05/19 00:12:21;;;;;;;7.43;1.80;;;12.40;99.90;;;;;;5069712;28;20102;-82
2023/05/19 00:14:47;;;;;;;4.68;1.38;;;12.40;99.90;;;;;;5070069;28;20159;-81
2023/05/19 00:17:15;;;;;;;6.68;1.33;;;12.40;99.90;;;;;;5070058;28;20473;-81
2023/05/19 00:19:43;;;;;;;3.35;1.40;;;12.30;99.90;;;;;;5071829;28;20024;-82
2023/05/19 00:22:09;;;;;;;3.35;1.55;;;12.30;99.90;;;;;;5072987;28;20044;-81
2023/05/19 00:24:35;;;;;;;5.78;1.70;;;12.40;99.90;;;;;;5073790;28;20029;-81
2023/05/19 00:27:00;;;;;;;5.00;1.60;;;12.40;99.90;;;;;;5090522;28;20020;-81
2023/05/19 00:29:26;;;;;;;5.90;1.70;;;12.40;99.90;;;;;;5072773;28;20056;-82
2023/05/19 00:31:52;;;;;;;5.53;1.45;;;12.40;99.90;;;;;;5090232;28;20055;-81
2023/05/19 00:34:17;;;;;;;3.33;1.30;;;12.50;99.90;;;;;;5072942;28;20127;-81
2023/05/19 00:36:43;;;;;;;3.58;1.25;;;12.50;99.90;;;;;;5072675;28;20024;-81
2023/05/19 00:39:08;;;;;;;3.28;1.40;;;12.50;99.90;;;;;;5072945;28;20373;-81
2023/05/19 00:41:34;;;;;;;4.28;1.50;;;12.50;99.90;;;;;;5073999;28;20024;-82
2023/05/19 00:43:59;;;;;;;6.20;1.50;;;12.50;99.90;;;;;;5073928;28;20112;-81
2023/05/19 00:46:25;;;;;;;3.92;1.40;;;12.50;99.90;;;;;;5074052;28;20031;-82
2023/05/19 00:48:50;;;;;;;6.95;1.50;;;12.60;99.90;;;;;;5073982;28;20466;-81
2023/05/19 00:51:17;;;;;;;5.65;1.20;;;12.50;99.90;;;;;;5072948;28;20033;-80
2023/05/19 00:53:47;;;;;;;3.20;1.50;;;12.50;99.90;;;;;;5073645;28;20020;-81
2023/05/19 00:56:14;;;;;;;3.88;1.20;;;12.40;99.90;;;;;;5079134;28;20035;-81
2023/05/19 00:58:40;;;;;;;5.35;1.40;;;12.40;99.90;;;;;;5079174;28;20488;-81
2023/05/19 01:01:06;;;;;;;4.43;1.58;;;12.40;99.90;;;;;;5079374;28;20076;-81
2023/05/19 01:03:34;;;;;;;6.75;1.60;;;12.40;99.90;;;;;;5079169;28;20028;-81
2023/05/19 01:06:06;;;;;;;3.65;1.52;;;12.40;99.90;;;;;;5079210;28;20050;-81
2023/05/19 01:08:33;;;;;;;5.32;1.30;;;12.40;99.90;;;;;;5079671;28;20028;-81
2023/05/19 01:10:58;;;;;;;2.50;1.17;;;12.40;99.90;;;;;;5080138;28;20039;-80
2023/05/19 01:13:25;;;;;;;3.25;1.30;;;12.40;99.90;;;;;;5078202;28;20029;-83
2023/05/19 01:16:00;;;;;;;4.57;1.77;;;12.40;99.90;;;;;;5079418;28;20029;-81
2023/05/19 01:18:37;;;;;;;4.63;1.52;;;12.40;99.90;;;;;;5078556;28;20115;-81
2023/05/19 01:21:23;;;;;;;3.10;1.45;;;12.20;99.90;;;;;;5078838;28;20051;-80
2023/05/19 01:24:08;;;;;;;2.55;1.20;;;12.10;99.90;;;;;;5078931;28;20119;-80
2023/05/19 01:26:48;;;;;;;5.70;1.40;;;12.10;99.90;;;;;;5078793;28;20094;-81
2023/05/19 01:29:28;;;;;;;4.68;1.52;;;12.10;99.90;;;;;;5079647;28;20020;-81
2023/05/19 01:31:56;;;;;;;3.90;1.42;;;12.10;99.90;;;;;;5079654;28;20033;-81
2023/05/19 01:34:25;;;;;;;4.15;1.50;;;12.10;99.90;;;;;;5080122;28;20025;-82
2023/05/19 01:36:53;;;;;;;8.10;1.67;;;12.10;99.90;;;;;;5078629;28;20031;-81
2023/05/19 01:39:19;;;;;;;4.32;1.70;;;12.10;99.90;;;;;;5078943;28;20035;-81
2023/05/19 01:41:46;;;;;;;4.88;1.23;;;12.20;99.90;;;;;;5079227;28;20020;-80
2023/05/19 01:44:12;;;;;;;5.35;1.40;;;12.20;99.90;;;;;;5080158;28;20024;-81
2023/05/19 01:46:38;;;;;;;6.40;1.45;;;12.10;99.90;;;;;;5079988;28;20035;-81
2023/05/19 01:49:05;;;;;;;4.30;1.60;;;12.20;99.90;;;;;;5096171;28;20036;-82
2023/05/19 01:51:31;;;;;;;4.30;1.52;;;12.20;99.90;;;;;;5079029;28;20039;-82
2023/05/19 01:53:56;;;;;;;6.13;1.42;;;12.20;99.90;;;;;;5096320;28;20028;-82
2023/05/19 01:56:35;;;;;;;6.72;1.50;;;12.20;99.90;;;;;;5079506;28;20047;-81
2023/05/19 01:59:15;;;;;;;3.40;1.70;;;12.10;99.90;;;;;;5096213;28;20024;-81
2023/05/19 02:01:52;;;;;;;5.82;1.50;;;12.10;99.90;;;;;;5095172;28;20052;-81
2023/05/19 02:04:26;;;;;;;5.20;1.52;;;12.10;99.90;;;;;;5080268;28;20024;-82
2023/05/19 02:07:11;;;;;;;5.00;1.40;;;12.10;99.90;;;;;;5076691;28;20036;-82
2023/05/19 02:10:02;;;;;;;3.45;1.40;;;12.10;99.90;;;;;;5075739;28;20053;-82
2023/05/19 02:12:33;;;;;;;5.82;1.30;;;12.10;99.90;;;;;;5092605;28;20047;-83
2023/05/19 02:15:15;;;;;;;5.88;1.75;;;12.00;99.90;;;;;;5076402;28;20029;-82
2023/05/19 02:17:46;;;;;;;3.60;1.48;;;12.00;99.90;;;;;;5075998;28;20111;-82
2023/05/19 02:20:12;;;;;;;3.92;1.65;;;12.10;99.90;;;;;;5075913;28;20428;-81
2023/05/19 02:22:38;;;;;;;3.08;1.90;;;12.00;99.90;;;;;;5075489;28;20032;-81
2023/05/19 02:25:04;;;;;;;6.60;2.00;;;12.00;99.90;;;;;;5076771;28;20438;-81
2023/05/19 02:27:30;;;;;;;3.80;1.90;;;12.00;99.90;;;;;;5076442;28;20025;-82
2023/05/19 02:29:55;;;;;;;6.30;2.08;;;12.00;99.90;;;;;;5075249;28;20024;-80
2023/05/19 02:32:21;;;;;;;4.90;2.10;;;11.90;99.90;;;;;;5076709;28;20035;-81
2023/05/19 02:34:47;;;;;;;4.85;2.13;;;11.90;99.90;;;;;;5075279;28;20042;-81
2023/05/19 02:37:13;;;;;;;4.28;2.03;;;11.90;99.90;;;;;;5092727;28;20067;-81
2023/05/19 02:39:40;;;;;;;7.88;2.10;;;11.90;99.90;;;;;;5074896;28;20025;-80
2023/05/19 02:42:05;;;;;;;7.03;3.00;;;11.90;99.90;;;;;;5075732;28;20033;-81
2023/05/19 02:44:31;;;;;;;7.32;2.38;;;11.80;99.90;;;;;;5075909;28;20028;-81
2023/05/19 02:46:57;;;;;;;4.13;2.40;;;11.80;99.90;;;;;;5075117;28;20032;-81
2023/05/19 02:49:22;;;;;;;8.13;2.65;;;11.70;99.90;;;;;;5076275;28;20535;-80
2023/05/19 02:51:48;;;;;;;7.93;2.30;;;11.70;99.90;;;;;;5075816;28;20040;-81
2023/05/19 02:54:13;;;;;;;7.20;2.70;;;11.70;99.90;;;;;;5076118;28;20028;-80
2023/05/19 02:56:39;;;;;;;7.00;2.50;;;11.70;99.90;;;;;;5076172;28;20024;-79
2023/05/19 02:59:05;;;;;;;5.85;2.97;;;11.60;99.90;;;;;;5076243;28;20024;-79
2023/05/19 03:01:31;;;;;;;11.18;3.05;;;11.60;99.90;;;;;;5075683;28;20135;-80
2023/05/19 03:03:57;;;;;;;5.55;2.28;;;11.50;99.90;;;;;;5074623;28;20025;-80
2023/05/19 03:06:23;;;;;;;5.70;2.33;;;11.50;99.90;;;;;;5075543;28;20112;-80
2023/05/19 03:08:49;;;;;;;6.43;2.70;;;11.40;99.90;;;;;;5075182;28;20670;-81
2023/05/19 03:11:14;;;;;;;6.28;3.30;;;11.40;99.90;;;;;;5075366;28;20477;-81
2023/05/19 03:13:40;;;;;;;7.57;2.75;;;11.30;99.90;;;;;;5074328;28;20402;-81
2023/05/19 03:16:06;;;;;;;7.45;3.22;;;11.30;99.90;;;;;;5075650;28;20029;-80
2023/05/19 03:18:33;;;;;;;7.72;2.85;;;11.40;99.90;;;;;;5073941;28;20025;-81
2023/05/19 03:20:58;;;;;;;8.70;3.15;;;11.40;99.90;;;;;;5074754;28;20193;-80
2023/05/19 03:23:25;;;;;;;7.47;3.13;;;11.40;99.90;;;;;;5074417;28;20043;-80
2023/05/19 03:25:52;;;;;;;6.30;3.05;;;11.40;99.90;;;;;;5075441;28;20019;-80
2023/05/19 03:28:18;;;;;;;4.75;3.13;;;11.50;99.90;;;;;;5091332;28;20086;-81
2023/05/19 03:30:44;;;;;;;9.60;3.22;;;11.50;99.90;;;;;;5074552;28;20032;-81
2023/05/19 03:33:10;;;;;;;8.10;3.22;;;11.40;99.90;;;;;;5075292;28;20094;-81
2023/05/19 03:35:36;;;;;;;5.63;3.42;;;11.40;99.90;;;;;;5073978;28;20036;-81
2023/05/19 03:38:02;;;;;;;9.68;2.97;;;11.40;99.90;;;;;;5075180;28;20377;-81
2023/05/19 03:40:27;;;;;;;9.45;3.35;;;11.40;99.90;;;;;;5091138;28;20036;-81
2023/05/19 03:42:55;;;;;;;7.88;3.45;;;11.40;99.90;;;;;;5075167;28;20466;-81
2023/05/19 03:45:21;;;;;;;6.50;3.30;;;11.30;99.90;;;;;;5075457;28;20032;-81
2023/05/19 03:47:46;;;;;;;5.53;3.72;;;11.30;99.90;;;;;;5074370;28;20037;-81
2023/05/19 03:50:12;;;;;;;8.00;3.40;;;11.30;99.90;;;;;;5090997;28;20071;-81
2023/05/19 03:52:38;;;;;;;5.47;3.10;;;11.20;99.90;;;;;;5073117;28;20029;-81
2023/05/19 03:55:05;;;;;;;5.07;3.05;;;11.20;99.90;;;;;;5090640;28;20077;-80
2023/05/19 03:57:32;;;;;;;6.93;3.33;;;11.20;99.90;;;;;;5074686;28;20521;-81
2023/05/19 03:59:58;;;;;;;7.57;3.53;;;11.20;99.90;;;;;;5073237;28;20029;-80
2023/05/19 04:02:23;;;;;;;5.95;3.35;;;11.20;99.90;;;;;;5072948;28;20031;-80
2023/05/19 04:04:49;;;;;;;7.03;2.95;;;11.20;99.90;;;;;;5072969;28;20029;-81
2023/05/19 04:07:15;;;;;;;8.55;3.28;;;11.20;99.90;;;;;;5067586;28;20028;-80
2023/05/19 04:09:41;;;;;;;6.95;3.42;;;11.20;99.90;;;;;;5053157;28;20405;-81
2023/05/19 04:12:07;;;;;;;7.45;3.17;;;11.10;99.90;;;;;;5053083;28;20041;-81
2023/05/19 04:14:32;;;;;;;6.35;3.03;;;11.20;99.90;;;;;;5054299;28;20026;-82
2023/05/19 04:16:58;;;;;;;7.55;3.42;;;11.10;99.90;;;;;;5054120;28;20029;-81
2023/05/19 04:19:24;;;;;;;21.58;3.42;;;11.20;99.90;;;;;;5054409;28;20065;-81
2023/05/19 04:21:50;;;;;;;8.68;2.95;;;11.20;99.90;;;;;;5052823;28;20355;-82
2023/05/19 04:24:16;;;;;;;7.75;3.10;;;11.20;99.90;;;;;;5053277;28;20466;-80
2023/05/19 04:26:44;;;;;;;7.32;2.75;;;11.10;99.90;;;;;;5053073;28;20036;-79
2023/05/19 04:29:12;;;;;;;8.43;2.70;;;11.10;99.90;;;;;;5052344;28;20025;-80
2023/05/19 04:31:41;;;;;;;4.75;2.25;;;11.10;99.90;;;;;;5052322;28;20128;-81
2023/05/19 04:34:06;;;;;;;6.40;2.92;;;11.10;99.90;;;;;;5054028;28;20032;-81
2023/05/19 04:36:32;;;;;;;4.47;2.17;;;11.10;99.90;;;;;;5054384;28;20025;-83
2023/05/19 04:39:01;;;;;;;6.13;2.20;;;11.20;99.90;;;;;;5052557;28;20032;-82
2023/05/19 04:41:27;;;;;;;3.75;2.10;;;11.20;99.90;;;;;;5053823;28;20116;-82
2023/05/19 04:43:52;;;;;;;3.90;2.30;;;11.30;99.90;;;;;;5052256;28;20493;-81
2023/05/19 04:46:22;;;;;;;9.60;2.25;;;11.20;99.90;;;;;;5053672;28;20155;-80
2023/05/19 04:48:49;;;;;;;6.25;2.47;;;11.20;99.90;;;;;;5052417;28;20032;-80
2023/05/19 04:51:16;;;;;;;5.82;2.30;;;11.30;99.90;;;;;;5054162;28;20032;-80
2023/05/19 04:53:42;;;;;;;4.65;2.15;;;11.40;99.90;;;;;;5052566;28;20029;-81
2023/05/19 04:56:08;;;;;;;5.20;2.08;;;11.40;99.90;;;;;;5054641;28;20029;-80
2023/05/19 04:58:34;;;;;;;4.53;2.05;;;11.40;99.90;;;;;;5053010;28;20040;-82
2023/05/19 05:01:00;;;;;;;5.72;2.40;;;11.40;99.90;;;;;;5052483;28;20048;-80
2023/05/19 05:03:25;;;;;;;4.05;2.30;;;11.40;99.90;;;;;;5052371;28;20029;-80
2023/05/19 05:05:51;;;;;;;5.95;2.28;;;11.40;99.90;;;;;;5052073;28;20032;-80
2023/05/19 05:08:23;;;;;;;4.82;2.03;;;11.50;99.90;;;;;;5066484;28;20041;-80
2023/05/19 05:10:51;;;;;;;8.80;2.05;;;11.50;99.90;;;;;;5072944;28;20064;-81
2023/05/19 05:13:17;;;;;;;5.97;2.30;;;11.50;99.90;;;;;;5072831;28;20035;-80
2023/05/19 05:15:43;;;;;;;6.68;2.10;;;11.50;99.90;;;;;;5073544;28;20033;-81
2023/05/19 05:18:09;;;;;;;5.30;2.00;;;11.60;99.90;;;;;;5073196;28;20032;-80
2023/05/19 05:20:35;;;;;;;6.10;2.08;;;11.50;99.90;;;;;;5072511;28;20029;-81
2023/05/19 05:23:01;;;;;;;5.53;2.00;;;11.60;99.90;;;;;;5073510;28;20363;-80
2023/05/19 05:25:27;;;;;;;5.05;1.80;;;11.60;99.90;;;;;;5089632;28;20373;-80
2023/05/19 05:27:53;;;;;;;6.57;2.20;;;11.60;99.90;;;;;;5072300;28;20067;-79
2023/05/19 05:30:18;;;;;;;3.13;1.75;;;11.70;99.90;;;;;;5073290;28;20024;-80
2023/05/19 05:32:44;;;;;;;6.38;1.85;;;11.60;99.90;;;;;;5071868;28;20393;-80
2023/05/19 05:35:10;;;;;;;5.07;1.77;;;11.70;99.90;;;;;;5073385;28;20446;-80
2023/05/19 05:37:36;;;;;;;6.10;2.15;;;11.70;99.90;;;;;;5072467;28;20028;-81
2023/05/19 05:40:03;;;;;;;6.30;2.15;;;11.70;99.90;;;;;;5088889;28;20021;-80
2023/05/19 05:42:28;;;;;;;5.40;1.95;;;11.80;99.90;;;;;;5074474;28;20039;-80
2023/05/19 05:44:54;;;;;;;3.35;1.83;;;11.80;99.90;;;;;;5076821;28;20028;-79
2023/05/19 05:47:20;;;;;;;6.95;2.10;;;11.80;99.90;;;;;;5076713;28;20024;-81
2023/05/19 05:49:47;;;;;;;5.60;1.77;;;11.80;99.90;;;;;;5076652;28;20025;-82
2023/05/19 05:52:14;;;;;;;4.80;1.70;;;11.90;99.90;;;;;;5077556;28;20036;-80
2023/05/19 05:54:40;;;;;;;8.65;2.03;;;11.80;99.90;;;;;;5092842;28;20079;-82
2023/05/19 05:57:06;;;;;;;7.13;2.20;;;11.90;99.90;;;;;;5076888;28;20437;-81
2023/05/19 05:59:32;;;;;;;6.68;1.85;;;11.90;99.90;;;;;;5076847;28;20025;-80
2023/05/19 06:01:58;;;;;;;6.57;2.13;;;11.90;99.90;;;;;;5075205;28;20044;-81
2023/05/19 06:04:25;;;;;;;4.65;2.03;;;11.90;99.90;;;;;;5076979;28;20068;-79
2023/05/19 06:06:51;;;;;;;5.90;2.08;;;11.90;99.90;;;;;;5076263;28;20032;-78
2023/05/19 06:09:17;;;;;;;6.97;1.88;;;12.00;99.90;;;;;;5076454;28;20458;-81
2023/05/19 06:11:42;;;;;;;7.55;2.03;;;11.90;99.90;;;;;;5075183;28;20050;-81
2023/05/19 06:14:08;;;;;;;6.32;2.00;;;11.90;99.90;;;;;;5076182;28;20066;-81
2023/05/19 06:16:34;;;;;;;6.65;2.10;;;11.90;99.90;;;;;;5077037;28;20067;-79
2023/05/19 06:18:59;;;;;;;6.50;1.98;;;11.90;99.90;;;;;;5092296;28;20021;-79
2023/05/19 06:21:25;;;;;;;6.10;1.85;;;11.90;99.90;;;;;;5075705;28;20029;-79
2023/05/19 06:23:51;;;;;;;5.60;2.00;;;12.00;99.90;;;;;;5074949;28;20028;-80
2023/05/19 06:26:16;;;;;;;6.32;1.90;;;12.00;99.90;;;;;;5074908;28;20071;-79
2023/05/19 06:28:42;;;;;;;5.45;2.13;;;12.00;99.90;;;;;;5075124;28;20481;-81
2023/05/19 06:31:08;;;;;;;6.88;2.03;;;12.00;99.90;;;;;;5062439;28;20465;-80
2023/05/19 06:33:33;;;;;;;6.97;1.85;;;12.00;99.90;;;;;;5075807;28;20040;-80
2023/05/19 06:35:59;;;;;;;6.13;1.80;;;12.00;99.90;;;;;;5064458;28;20024;-79
2023/05/19 06:38:25;;;;;;;4.78;2.00;;;12.10;99.90;;;;;;5073946;28;20030;-80
2023/05/19 06:40:50;;;;;;;8.48;1.80;;;12.10;99.90;;;;;;5090626;28;20055;-80
2023/05/19 06:43:16;;;;;;;3.70;1.60;;;12.10;99.90;;;;;;5074717;28;20099;-78
2023/05/19 06:45:42;;;;;;;4.80;1.75;;;12.10;99.90;;;;;;5070165;28;20028;-84
2023/05/19 06:48:07;;;;;;;5.18;2.00;;;12.20;99.90;;;;;;5069924;28;20078;-81
2023/05/19 06:50:33;;;;;;;5.00;1.90;;;12.30;99.90;;;;;;5069717;28;20029;-80
2023/05/19 06:52:58;;;;;;;3.80;1.60;;;12.30;99.90;;;;;;5067375;28;20029;-81
2023/05/19 06:55:24;;;;;;;5.72;1.83;;;12.30;99.90;;;;;;5055258;28;20021;-81
2023/05/19 06:57:50;;;;;;;4.68;1.73;;;12.40;99.90;;;;;;5053990;28;20035;-81
2023/05/19 07:00:17;;;;;;;4.78;1.40;;;12.40;99.90;;;;;;5055568;28;20463;-81
2023/05/19 07:02:43;;;;;;;3.42;1.58;;;12.50;99.90;;;;;;5054529;28;20033;-81
2023/05/19 07:05:09;;;;;;;4.82;1.80;;;12.50;99.90;;;;;;5054052;28;20021;-81
2023/05/19 07:07:34;;;;;;;6.50;1.98;;;12.60;99.90;;;;;;5064472;28;20028;-81
2023/05/19 07:10:00;;;;;;;3.10;1.60;;;12.60;99.90;;;;;;5090593;28;20706;-82
2023/05/19 07:12:25;;;;;;;6.05;1.20;;;12.70;99.90;;;;;;5065410;28;20040;-82
2023/05/19 07:14:52;;;;;;;5.95;1.40;;;12.70;99.90;;;;;;5067794;28;20036;-81
2023/05/19 07:17:17;;;;;;;8.40;1.90;;;12.80;99.90;;;;;;5070159;28;20135;-81
2023/05/19 07:19:43;;;;;;;4.93;1.58;;;12.90;99.90;;;;;;5060969;28;20028;-81
2023/05/19 07:22:09;;;;;;;5.45;1.58;;;12.90;99.90;;;;;;5072175;28;20025;-81
2023/05/19 07:24:34;;;;;;;3.55;1.88;;;13.00;99.90;;;;;;5054288;28;20036;-80
2023/05/19 07:27:00;;;;;;;4.03;2.00;;;13.10;99.90;;;;;;5056685;28;20032;-81
2023/05/19 07:29:26;;;;;;;4.47;1.50;;;13.10;99.90;;;;;;5071769;28;20055;-81
2023/05/19 07:31:53;;;;;;;6.30;2.10;;;13.20;99.90;;;;;;5070105;28;20075;-81
2023/05/19 07:34:20;;;;;;;4.75;1.27;;;13.20;99.90;;;;;;5074916;28;20028;-81
2023/05/19 07:36:46;;;;;;;3.95;1.77;;;13.30;99.90;;;;;;5069330;28;20029;-81
2023/05/19 07:39:12;;;;;;;6.60;1.50;;;13.30;99.90;;;;;;5054989;28;20382;-81
2023/05/19 07:41:38;;;;;;;3.25;1.63;;;13.30;99.90;;;;;;5057050;28;20025;-82
2023/05/19 07:44:06;;;;;;;4.45;1.27;;;13.40;99.90;;;;;;5064567;28;20332;-81
2023/05/19 07:46:32;;;;;;;5.10;1.70;;;13.40;99.90;;;;;;5071256;28;20056;-82
2023/05/19 07:48:58;;;;;;;7.15;1.55;;;13.40;99.90;;;;;;5071022;28;20397;-83
2023/05/19 07:51:23;;;;;;;8.45;1.77;;;13.60;99.90;;;;;;5073254;28;20115;-82
2023/05/19 07:53:50;;;;;;;4.55;1.88;;;13.60;99.90;;;;;;5060916;28;20083;-83
2023/05/19 07:56:15;;;;;;;6.40;1.42;;;13.70;99.90;;;;;;5073671;28;20672;-81
2023/05/19 07:58:41;;;;;;;11.80;3.90;;;13.70;99.90;;;;;;5063040;28;20028;-81
2023/05/19 08:01:07;;;;;;;9.38;2.60;;;13.80;99.90;;;;;;5065947;28;20052;-81
2023/05/19 08:03:32;;;;;;;7.28;2.20;;;13.90;99.90;;;;;;5070098;28;20024;-81
2023/05/19 08:05:58;;;;;;;7.82;1.90;;;13.90;99.90;;;;;;5073176;28;20037;-80
2023/05/19 08:08:24;;;;;;;6.22;1.63;;;14.00;99.90;;;;;;5074511;28;20025;-85
2023/05/19 08:10:49;;;;;;;12.70;4.47;;;14.10;99.90;;;;;;5056803;28;20036;-85
2023/05/19 08:13:15;;;;;;;12.85;3.45;;;14.10;99.90;;;;;;5061413;28;20036;-82
2023/05/19 08:15:41;;;;;;;3.40;2.10;;;14.20;99.90;;;;;;5069950;28;20398;-80
2023/05/19 08:18:07;;;;;;;6.82;2.17;;;14.20;99.90;;;;;;5054482;28;20128;-81
2023/05/19 08:20:32;;;;;;;3.67;1.85;;;14.20;99.90;;;;;;5061662;28;20118;-82
2023/05/19 08:22:58;;;;;;;5.75;1.60;;;14.20;99.90;;;;;;5064545;28;20505;-81
2023/05/19 08:25:24;;;;;;;9.45;2.65;;;14.30;99.90;;;;;;5067705;28;20079;-81
2023/05/19 08:27:50;;;;;;;8.32;2.60;;;14.30;99.90;;;;;;5074113;28;20049;-82
2023/05/19 08:30:15;;;;;;;7.03;1.95;;;14.40;99.90;;;;;;5064172;28;20028;-82
2023/05/19 08:32:41;;;;;;;6.15;1.80;;;14.40;99.90;;;;;;5066766;28;20055;-83
2023/05/19 08:35:07;;;;;;;7.82;2.00;;;14.50;99.90;;;;;;5072191;28;20219;-83
2023/05/19 08:37:35;;;;;;;5.38;2.42;;;14.50;99.90;;;;;;5071732;28;20028;-85
2023/05/19 08:40:03;;;;;;;5.65;2.05;;;14.60;99.90;;;;;;5053622;28;20454;-87
2023/05/19 08:42:29;;;;;;;6.35;2.30;;;14.60;99.90;;;;;;5067358;28;20038;-86
2023/05/19 08:44:55;;;;;;;6.05;1.90;;;14.70;99.90;;;;;;5066443;28;20032;-84
2023/05/19 08:47:21;;;;;;;4.65;1.65;;;14.80;99.90;;;;;;5058007;28;20377;-85
2023/05/19 08:49:51;;;;;;;5.70;2.47;;;14.80;99.90;;;;;;5072722;28;20032;-86
2023/05/19 08:52:39;;;;;;;6.75;1.95;;;14.90;99.90;;;;;;5070985;28;20039;-85
2023/05/19 08:55:11;;;;;;;14.73;1.83;;;14.90;99.90;;;;;;5068636;28;20024;-86
2023/05/19 08:57:37;;;;;;;5.18;1.95;;;15.00;99.90;;;;;;5054643;28;20031;-88
2023/05/19 09:00:11;;;;;;;8.85;2.20;;;15.10;99.90;;;;;;5069931;28;20419;-84
2023/05/19 09:02:38;;;;;;;7.88;2.20;;;15.10;99.90;;;;;;5061727;28;20025;-86
2023/05/19 09:05:05;;;;;;;14.63;2.97;;;15.20;99.90;;;;;;5053821;28;20036;-86
2023/05/19 09:07:34;;;;;;;6.38;2.13;;;15.10;99.90;;;;;;5068809;28;20025;-87
2023/05/19 09:10:00;;;;;;;28.25;3.80;;;15.20;99.90;;;;;;5071964;28;20465;-87
2023/05/19 09:12:26;;;;;;;7.75;1.70;;;15.30;99.90;;;;;;5073341;28;20028;-88
2023/05/19 09:14:52;;;;;;;7.47;1.83;;;15.50;99.90;;;;;;5073723;28;20459;-91
2023/05/19 09:17:18;;;;;;;8.65;2.00;;;15.60;99.00;;;;;;5065302;28;20036;-91
2023/05/19 09:19:46;;;;;;;4.88;1.73;;;15.60;99.90;;;;;;5067947;28;20458;-86
2023/05/19 09:22:14;;;;;;;4.70;1.38;;;15.80;99.90;;;;;;5065702;28;20032;-91
2023/05/19 09:24:41;;;;;;;4.55;1.60;;;15.90;99.60;;;;;;5056187;28;20028;-90
2023/05/19 09:27:07;;;;;;;6.25;2.10;;;16.00;98.20;;;;;;5073399;28;20642;-90
2023/05/19 09:29:32;;;;;;;8.10;1.60;;;16.00;98.00;;;;;;5063785;28;20025;-88
2023/05/19 09:32:04;;;;;;;3.88;1.30;;;16.00;97.90;;;;;;5073903;28;20401;-86
2023/05/19 09:34:30;;;;;;;3.30;1.30;;;16.00;96.60;;;;;;5076841;28;20175;-90
2023/05/19 09:36:58;;;;;;;3.63;1.60;;;16.10;96.50;;;;;;5074789;28;20052;-86
2023/05/19 09:39:25;;;;;;;7.05;1.67;;;16.10;97.00;;;;;;5062118;28;20021;-86
2023/05/19 09:41:57;;;;;;;3.20;1.50;;;16.10;97.40;;;;;;5057210;28;20405;-83
2023/05/19 09:44:27;;;;;;;6.88;1.73;;;16.20;98.90;;;;;;5066033;28;20519;-85
2023/05/19 09:46:53;;;;;;;4.57;1.58;;;16.20;97.30;;;;;;5089534;28;20021;-85
2023/05/19 09:49:28;;;;;;;7.63;1.27;;;16.30;95.60;;;;;;5061198;28;20385;-84
2023/05/19 09:51:55;;;;;;;3.08;1.10;;;16.30;95.90;;;;;;5075790;28;20111;-84
2023/05/19 09:54:30;;;;;;;4.88;1.30;;;16.40;94.90;;;;;;5069777;28;20029;-85
2023/05/19 09:57:01;;;;;;;4.97;1.73;;;16.30;94.70;;;;;;5055965;28;20124;-85
2023/05/19 09:59:28;;;;;;;4.60;1.30;;;16.20;93.90;;;;;;5075439;28;20028;-87
2023/05/19 10:01:55;;;;;;;4.88;1.35;;;16.20;95.20;;;;;;5074959;28;20139;-86
2023/05/19 10:04:23;;;;;;;4.65;1.63;;;16.30;95.70;;;;;;5076280;28;20028;-88
2023/05/19 10:06:58;;;;;;;3.40;1.30;;;16.30;94.60;;;;;;5057054;28;20055;-86
2023/05/19 10:09:27;;;;;;;4.47;1.17;;;16.30;93.70;;;;;;5092266;28;20080;-89
2023/05/19 10:11:55;;;;;;;4.30;1.52;;;16.30;93.30;;;;;;5095738;28;20036;-85
2023/05/19 10:14:23;;;;;;;5.00;1.30;;;16.30;93.10;;;;;;5095914;28;20024;-88
2023/05/19 10:16:56;;;;;;;2.97;1.10;;;16.30;92.20;;;;;;5068291;28;20055;-87
2023/05/19 10:19:24;;;;;;;5.18;1.00;;;16.30;93.00;;;;;;5065265;28;20060;-85
2023/05/19 10:21:50;;;;;;;5.45;1.30;;;16.30;93.20;;;;;;5067623;28;21373;-86
2023/05/19 10:24:16;;;;;;;4.55;1.30;;;16.40;93.70;;;;;;5069961;28;20028;-86
2023/05/19 10:26:46;;;;;;;6.13;1.33;;;16.50;91.90;;;;;;5057408;28;20029;-89
2023/05/19 10:29:15;;;;;;;5.10;1.42;;;16.60;91.80;;;;;;5063058;28;20025;-91
2023/05/19 10:31:42;;;;;;;5.55;1.55;;;16.60;91.50;;;;;;5069930;28;20461;-92
2023/05/19 10:34:33;;;;;;;5.53;1.27;;;16.80;91.40;;;;;;5068906;28;20029;-88
2023/05/19 10:37:28;;;;;;;4.95;1.30;;;17.10;92.90;;;;;;5062864;28;20025;-89
2023/05/19 10:39:54;;;;;;;3.70;1.40;;;17.40;90.40;;;;;;5066311;28;20489;-89
2023/05/19 10:42:28;;;;;;;3.17;1.42;;;17.50;89.90;;;;;;5060033;28;20454;-83
2023/05/19 10:45:16;;;;;;;5.88;1.70;;;17.70;88.00;;;;;;5060582;28;20063;-81
2023/05/19 10:47:43;;;;;;;4.00;1.52;;;18.00;87.40;;;;;;5054084;28;20454;-83
2023/05/19 10:50:09;;;;;;;4.50;1.35;;;18.10;89.70;;;;;;5066702;28;20060;-86
2023/05/19 10:52:39;;;;;;;3.08;1.25;;;18.30;88.50;;;;;;5073120;28;20060;-85
2023/05/19 10:55:09;;;;;;;2.72;1.13;;;18.50;87.30;;;;;;5058606;28;20060;-83
2023/05/19 10:57:35;;;;;;;6.30;1.40;;;18.50;86.60;;;;;;5073860;28;20029;-83
2023/05/19 11:00:28;;;;;;;4.18;1.10;;;18.60;87.80;;;;;;5064945;28;20484;-85
2023/05/19 11:03:16;;;;;;;6.72;1.70;;;18.50;86.60;;;;;;5071506;28;20036;-81
2023/05/19 11:05:44;;;;;;;3.13;1.20;;;18.50;89.50;;;;;;5072959;28;20077;-81
2023/05/19 11:08:10;;;;;;;3.95;1.40;;;18.60;89.20;;;;;;5090550;28;20029;-82
2023/05/19 11:10:37;;;;;;;6.50;1.83;;;18.60;85.90;;;;;;5075238;28;20047;-84
2023/05/19 11:13:04;;;;;;;5.32;1.42;;;18.60;84.50;;;;;;5063071;28;20389;-84
2023/05/19 11:15:35;;;;;;;4.65;1.30;;;18.50;84.40;;;;;;5063845;28;20027;-83
2023/05/19 11:18:01;;;;;;;4.43;1.60;;;18.50;85.90;;;;;;5056766;28;20024;-84
2023/05/19 11:20:28;;;;;;;3.22;1.10;;;18.50;88.20;;;;;;5075090;28;20257;-83
2023/05/19 11:23:04;;;;;;;4.55;1.40;;;18.50;88.30;;;;;;5080404;28;20090;-82
2023/05/19 11:25:42;;;;;;;3.08;1.30;;;18.60;90.00;;;;;;5052887;28;20029;-83
2023/05/19 11:28:11;;;;;;;5.70;1.58;;;18.70;90.70;;;;;;5066026;28;20034;-84
2023/05/19 11:30:37;;;;;;;3.50;1.10;;;18.60;90.00;;;;;;5071963;28;20032;-84
2023/05/19 11:33:03;;;;;;;2.88;1.45;;;18.90;90.40;;;;;;5067664;28;20036;-86
2023/05/19 11:35:30;;;;;;;7.13;1.50;;;19.10;86.50;;;;;;5057496;28;20420;-86
2023/05/19 11:37:56;;;;;;;3.95;1.33;;;19.20;90.20;;;;;;5065134;28;20536;-87
2023/05/19 11:40:22;;;;;;;5.13;1.50;;;19.30;88.90;;;;;;5066705;28;20041;-87
2023/05/19 11:42:48;;;;;;;5.70;1.35;;;19.40;86.10;;;;;;5053820;28;20025;-88
2023/05/19 11:45:13;;;;;;;1.77;0.98;;;19.40;86.40;;;;;;5059429;28;20025;-88
2023/05/19 11:47:39;;;;;;;2.58;1.10;;;19.40;86.10;;;;;;5062495;28;20051;-89
2023/05/19 11:50:05;;;;;;;5.05;1.30;;;19.40;84.40;;;;;;5072961;28;20587;-83
2023/05/19 11:52:31;;;;;;;4.03;0.98;;;19.50;85.60;;;;;;5067569;28;20074;-83
2023/05/19 11:55:00;;;;;;;3.53;1.20;;;19.70;83.50;;;;;;5074146;28;20103;-83
2023/05/19 11:57:26;;;;;;;4.65;1.10;;;19.90;84.40;;;;;;5073948;28;20032;-88
2023/05/19 11:59:52;;;;;;;1.60;1.10;;;20.00;84.90;;;;;;5066200;28;20029;-86
2023/05/19 12:02:26;;;;;;;3.03;1.17;;;20.00;83.50;;;;;;5074861;28;20408;-86
2023/05/19 12:04:53;;;;;;;2.95;1.35;;;20.00;84.00;;;;;;5072716;28;20389;-84
2023/05/19 12:07:22;;;;;;;1.63;0.90;;;20.10;84.70;;;;;;5067783;28;20029;-85
2023/05/19 12:09:49;;;;;;;2.78;0.98;;;20.10;83.50;;;;;;5052780;28;20119;-82
2023/05/19 12:12:16;;;;;;;2.90;1.20;;;20.10;82.40;;;;;;5053779;28;20120;-93
2023/05/19 12:14:42;;;;;;;4.03;1.27;;;20.00;82.30;;;;;;5057940;28;20029;-87
2023/05/19 12:17:16;;;;;;;2.17;1.15;;;20.00;84.20;;;;;;5069671;28;20025;-87
2023/05/19 12:19:47;;;;;;;2.10;0.90;;;20.00;85.00;;;;;;5078411;28;20496;-92
2023/05/19 12:22:14;;;;;;;3.87;1.10;;;20.10;82.90;;;;;;5072476;28;20029;-90
2023/05/19 12:24:41;;;;;;;4.00;1.10;;;20.10;81.70;;;;;;5063036;28;20083;-93
2023/05/19 12:27:16;;;;;;;1.00;0.90;;;20.00;82.70;;;;;;5072697;28;20020;-92
2023/05/19 12:29:41;;;;;;;3.92;1.20;;;19.90;83.40;;;;;;5056695;28;20386;-93
2023/05/19 12:32:08;;;;;;;2.63;1.10;;;19.70;83.00;;;;;;5052479;28;20029;-89
2023/05/19 12:34:37;;;;;;;1.85;1.05;;;19.70;82.80;;;;;;5053018;28;20032;-92
2023/05/19 12:37:04;;;;;;;4.00;0.93;;;19.60;84.00;;;;;;5066595;28;20457;-89
2023/05/19 12:39:31;;;;;;;2.72;1.02;;;19.40;84.50;;;;;;5062924;28;20032;-89
2023/05/19 12:42:06;;;;;;;3.05;1.10;;;19.30;84.80;;;;;;5053524;28;20104;-87
2023/05/19 12:44:46;;;;;;;3.13;1.27;;;19.30;85.60;;;;;;5056536;28;20048;-85
2023/05/19 12:47:13;;;;;;;4.60;1.40;;;19.30;84.30;;;;;;5058344;28;20031;-86